Briefing drone pour La voulte-sur-rhone

Rechercher une autre localisation

Conditions de vol :


Nous sommes le : Jeudi 17 juin 2021
Il est 20:12 UTC (22:12 LT)

Lever de soleil : 03:28 UTC (05:28 LT)
Coucher de soleil : 19:55 UTC (21:55 LT)

Météo

L'essentiel des conditions de vol

VIGILANCE MÉTÉO FRANCE - Ardèche (07)
Vigilance Jaune : Orages / Canicule
METAR de LFLU
LFLU 171800Z AUTO 19008KT 9999 FEW047/// BKN130/// OVC160/// ///TCU 26/18 Q1012

Date d'émission: 17/06/2021
Heure d'émission: 18:00 UTC
Vent: 190° pour 8 KT (15 km/h)
Visibilité horizontale: > 10 km
Plafond :
- Peu de nuages à 4700ft (1433m)
- Nuages morcelés à 13000ft (3962m)
- Couvert à 16000ft (4877m)
Température: 26 °C
Point de rosée: 18 °C
Humidité: 61%
Pression (QNH): 1012 hPa
Prévision 24h pour Valence (11 km)
Vent : 210° pour 8 KT (28 km/h)
Temperature Maxi: 30 °C
Temperature Min: 30 °C
Humidité : 42%
Condition : Partiellement nuageux



Warning: count(): Parameter must be an array or an object that implements Countable in /homepages/6/d509196549/htdocs/droneoxygene/briefing.php on line 743
WEBCAM POUR LA VOULTE-SUR-RHONE

Réglementation

Voler en sécurité

CARTES AERONAUTIQUE 1/500.000
CARTES VAC (LFLU)
SUP AIP




Chargement des AIP...
NOTAM (LA VOULTE-SUR-RHONE + Terrain à proximité / FIR )




Chargement des NOTAMS...
CONTACT PREFECTURE 07


Avertissement : Les données mises à disposition sont indicatives. Oxygène Drone ne pourra être tenu responsable de dégâts causés aux biens et aux personnes.